createdAt,value
2018-05-02T00:00:32.447Z,90.80
2018-05-02T00:03:01.478Z,90.80
2018-05-02T00:05:29.711Z,90.80
2018-05-02T00:07:58.745Z,91.10
2018-05-02T00:10:26.966Z,90.80
2018-05-02T00:12:55.210Z,90.80
2018-05-02T00:15:23.435Z,90.90
2018-05-02T00:17:52.459Z,91.20
2018-05-02T00:20:20.904Z,91.10
2018-05-02T00:22:49.154Z,91.40
2018-05-02T00:25:17.397Z,91.60
2018-05-02T00:27:45.651Z,91.70
2018-05-02T00:30:14.648Z,92.10
2018-05-02T00:32:43.666Z,92.00
2018-05-02T00:35:11.914Z,92.00
2018-05-02T00:37:40.917Z,92.30
2018-05-02T00:40:09.261Z,92.30
2018-05-02T00:42:37.480Z,92.60
2018-05-02T00:45:05.705Z,92.80
2018-05-02T00:47:33.955Z,93.30
2018-05-02T00:50:02.186Z,93.80
2018-05-02T00:52:31.213Z,94.00
2018-05-02T00:54:59.450Z,94.00
2018-05-02T00:57:28.473Z,94.50
2018-05-02T00:59:56.714Z,94.50
2018-05-02T01:02:24.958Z,94.50
2018-05-02T01:04:53.184Z,94.50
2018-05-02T01:07:22.196Z,94.10
2018-05-02T01:09:50.429Z,94.10
2018-05-02T01:12:18.675Z,94.00
2018-05-02T01:14:46.898Z,93.80
2018-05-02T01:17:15.914Z,93.80
2018-05-02T01:19:44.148Z,93.80
2018-05-02T01:22:12.383Z,93.80
2018-05-02T01:24:40.610Z,93.80
2018-05-02T01:27:09.621Z,93.90
2018-05-02T01:29:37.852Z,93.90
2018-05-02T01:32:06.114Z,93.80
2018-05-02T01:34:34.351Z,93.90
2018-05-02T01:37:02.610Z,94.10
2018-05-02T01:39:31.607Z,94.40
2018-05-02T01:42:00.621Z,94.40
2018-05-02T01:44:28.845Z,94.40
2018-05-02T01:46:57.102Z,94.50
2018-05-02T01:49:25.365Z,94.70
2018-05-02T01:51:53.599Z,94.70
2018-05-02T01:54:22.627Z,94.90
2018-05-02T01:56:50.871Z,94.90
2018-05-02T01:59:19.105Z,94.80
2018-05-02T02:01:47.347Z,94.90
2018-05-02T02:04:15.578Z,94.90
2018-05-02T02:06:43.853Z,94.90
2018-05-02T02:09:12.094Z,95.00
2018-05-02T02:11:40.320Z,95.00
2018-05-02T02:14:08.560Z,95.20
2018-05-02T02:16:36.791Z,95.20
2018-05-02T02:19:05.806Z,95.20
2018-05-02T02:21:34.047Z,95.20
2018-05-02T02:24:03.063Z,95.00
2018-05-02T02:26:31.293Z,95.00
2018-05-02T02:28:59.549Z,95.00
2018-05-02T02:31:27.765Z,95.30
2018-05-02T02:33:56.125Z,95.40
2018-05-02T02:36:24.234Z,95.40
2018-05-02T02:38:53.295Z,95.80
2018-05-02T02:41:21.555Z,95.80
2018-05-02T02:43:49.803Z,95.80
2018-05-02T02:46:18.039Z,95.90
2018-05-02T02:48:46.273Z,96.10
2018-05-02T02:51:14.498Z,96.10
2018-05-02T02:53:43.523Z,95.90
2018-05-02T02:56:11.761Z,95.80
2018-05-02T02:58:40.774Z,95.80
2018-05-02T03:01:09.011Z,95.80
2018-05-02T03:03:37.261Z,95.90
2018-05-02T03:06:05.492Z,95.90
2018-05-02T03:08:34.520Z,96.10
2018-05-02T03:11:02.752Z,96.10
2018-05-02T03:13:31.003Z,96.10
2018-05-02T03:15:59.235Z,96.00
2018-05-02T03:18:27.503Z,95.80
2018-05-02T03:20:55.742Z,95.90
2018-05-02T03:23:24.008Z,95.90
2018-05-02T03:25:59.094Z,95.60
2018-05-02T03:28:28.086Z,95.70
2018-05-02T03:30:56.326Z,95.60
2018-05-02T03:33:24.562Z,95.60
2018-05-02T03:35:52.806Z,95.80
2018-05-02T03:38:21.816Z,96.30
2018-05-02T03:40:50.058Z,96.30
2018-05-02T03:43:18.286Z,96.50
2018-05-02T03:45:46.539Z,96.30
2018-05-02T03:48:14.769Z,96.20
2018-05-02T03:50:43.021Z,96.00
2018-05-02T03:53:11.254Z,96.00
2018-05-02T03:55:40.276Z,96.30
2018-05-02T03:58:08.519Z,96.60
2018-05-02T04:00:48.775Z,96.40
2018-05-02T04:03:29.735Z,96.30
2018-05-02T04:06:09.941Z,96.30
2018-05-02T04:08:38.236Z,96.10
2018-05-02T04:11:07.191Z,96.20
2018-05-02T04:13:35.432Z,96.20
2018-05-02T04:16:03.695Z,96.40
2018-05-02T04:18:31.920Z,96.70
2018-05-02T04:21:00.171Z,96.80
2018-05-02T04:23:28.410Z,96.90
2018-05-02T04:25:57.414Z,97.10
2018-05-02T04:28:25.642Z,97.10
2018-05-02T04:30:53.894Z,97.30
2018-05-02T04:33:22.904Z,97.90
2018-05-02T04:35:51.896Z,98.00
2018-05-02T04:38:20.968Z,98.20
2018-05-02T04:40:49.179Z,98.10
2018-05-02T04:43:17.434Z,98.10
2018-05-02T04:45:46.430Z,98.00
2018-05-02T04:48:15.444Z,97.90
2018-05-02T04:50:43.693Z,97.90
2018-05-02T04:53:11.952Z,97.70
2018-05-02T04:55:40.196Z,97.50
2018-05-02T04:58:08.453Z,97.30
2018-05-02T05:00:36.690Z,97.30
2018-05-02T05:03:04.957Z,97.10
2018-05-02T05:05:33.187Z,97.40
2018-05-02T05:08:01.439Z,97.10
2018-05-02T05:10:30.434Z,96.60
2018-05-02T05:12:59.446Z,96.60
2018-05-02T05:15:27.680Z,96.50
2018-05-02T05:17:55.929Z,96.40
2018-05-02T05:20:24.164Z,96.20
2018-05-02T05:22:52.414Z,96.10
2018-05-02T05:25:20.651Z,96.00
2018-05-02T05:27:48.910Z,96.00
2018-05-02T05:30:17.134Z,96.00
2018-05-02T05:32:45.389Z,95.90
2018-05-02T05:35:13.696Z,95.70
2018-05-02T05:37:41.864Z,95.30
2018-05-02T05:40:10.111Z,95.30
2018-05-02T05:42:38.363Z,95.30
2018-05-02T05:45:06.623Z,94.60
2018-05-02T05:47:34.855Z,94.50
2018-05-02T05:50:03.130Z,94.30
2018-05-02T05:52:31.358Z,94.00
2018-05-02T05:54:59.600Z,94.00
2018-05-02T05:57:28.076Z,93.70
2018-05-02T05:59:56.294Z,93.50
2018-05-02T06:02:24.526Z,93.10
2018-05-02T06:04:52.773Z,93.70
2018-05-02T06:07:21.181Z,93.50
2018-05-02T06:09:49.487Z,92.70
2018-05-02T06:12:18.489Z,91.70
2018-05-02T06:14:46.754Z,91.70
2018-05-02T06:17:15.763Z,91.10
2018-05-02T06:19:44.012Z,91.10
2018-05-02T06:22:13.200Z,90.80
2018-05-02T06:24:41.430Z,90.60
2018-05-02T06:27:09.663Z,90.40
2018-05-02T06:29:38.691Z,90.30
2018-05-02T06:32:06.923Z,90.30
2018-05-02T06:34:35.176Z,89.90
2018-05-02T06:37:03.417Z,89.70
2018-05-02T06:39:31.691Z,88.20
2018-05-02T06:41:59.924Z,87.00
2018-05-02T06:44:28.172Z,86.90
2018-05-02T06:46:56.410Z,87.00
2018-05-02T06:49:24.668Z,87.10
2018-05-02T06:51:53.671Z,86.30
2018-05-02T06:54:22.680Z,84.70
2018-05-02T06:56:50.972Z,84.70
2018-05-02T06:59:19.484Z,84.10
2018-05-02T07:01:49.779Z,83.80
2018-05-02T07:04:18.238Z,83.50
2018-05-02T07:06:46.705Z,82.40
2018-05-02T07:09:15.313Z,81.70
2018-05-02T07:11:43.559Z,80.80
2018-05-02T07:14:11.799Z,79.50
2018-05-02T07:16:40.882Z,76.40
2018-05-02T07:19:09.134Z,75.50
2018-05-02T07:21:37.358Z,74.80
2018-05-02T07:24:05.604Z,74.00
2018-05-02T07:26:33.829Z,73.40
2018-05-02T07:29:02.865Z,71.60
2018-05-02T07:31:31.076Z,70.80
2018-05-02T07:33:59.322Z,70.20
2018-05-02T07:36:27.551Z,69.90
2018-05-02T07:38:55.803Z,68.50
2018-05-02T07:41:25.017Z,68.30
2018-05-02T07:43:53.272Z,68.50
2018-05-02T07:46:21.520Z,68.50
2018-05-02T07:48:49.786Z,66.00
2018-05-02T07:51:18.012Z,66.60
2018-05-02T07:53:46.264Z,67.30
2018-05-02T07:56:14.492Z,67.10
2018-05-02T07:58:43.500Z,66.70
2018-05-02T08:01:12.159Z,66.70
2018-05-02T08:03:40.426Z,66.10
2018-05-02T08:06:08.646Z,66.70
2018-05-02T08:08:36.887Z,66.30
2018-05-02T08:11:05.210Z,65.30
2018-05-02T08:13:33.374Z,65.40
2018-05-02T08:16:01.595Z,65.50
2018-05-02T08:18:29.837Z,64.10
2018-05-02T08:20:58.835Z,64.40
2018-05-02T08:23:27.077Z,64.30
2018-05-02T08:25:56.088Z,63.60
2018-05-02T08:28:24.341Z,63.60
2018-05-02T08:30:53.345Z,61.70
2018-05-02T08:33:22.357Z,61.90
2018-05-02T08:35:50.610Z,61.80
2018-05-02T08:38:19.614Z,59.00
2018-05-02T08:40:47.866Z,58.90
2018-05-02T08:43:16.862Z,56.80
2018-05-02T08:45:45.881Z,57.30
2018-05-02T08:48:14.114Z,57.30
2018-05-02T08:50:42.359Z,57.30
2018-05-02T08:53:10.590Z,56.10
2018-05-02T08:55:39.605Z,54.00
2018-05-02T08:58:07.841Z,54.00
2018-05-02T09:00:36.294Z,53.10
2018-05-02T09:03:05.502Z,52.70
2018-05-02T09:05:34.785Z,52.00
2018-05-02T09:08:03.181Z,51.90
2018-05-02T09:10:31.599Z,50.90
2018-05-02T09:13:00.047Z,50.60
2018-05-02T09:15:29.323Z,48.80
2018-05-02T09:17:57.572Z,48.70
2018-05-02T09:20:26.725Z,48.00
2018-05-02T09:22:54.955Z,47.40
2018-05-02T09:25:23.203Z,46.90
2018-05-02T09:27:52.208Z,45.40
2018-05-02T09:30:21.235Z,45.60
2018-05-02T09:32:49.489Z,46.20
2018-05-02T09:35:18.492Z,45.70
2018-05-02T09:37:46.736Z,45.70
2018-05-02T09:40:14.971Z,45.80
2018-05-02T09:42:43.201Z,45.40
2018-05-02T09:45:12.219Z,46.10
2018-05-02T09:47:40.454Z,46.10
2018-05-02T09:50:09.462Z,45.10
2018-05-02T09:52:37.696Z,45.10
2018-05-02T09:55:05.938Z,46.10
2018-05-02T09:57:34.170Z,46.50
2018-05-02T10:00:03.523Z,46.60
2018-05-02T10:02:31.967Z,45.80
2018-05-02T10:05:01.267Z,46.80
2018-05-02T10:07:32.902Z,46.80
2018-05-02T10:10:01.153Z,47.70
2018-05-02T10:12:32.263Z,48.60
2018-05-02T10:15:00.446Z,49.20
2018-05-02T10:17:28.708Z,48.20
2018-05-02T10:19:57.810Z,47.30
2018-05-02T10:22:26.036Z,47.10
2018-05-02T10:24:54.284Z,46.90
2018-05-02T10:27:22.527Z,47.00
2018-05-02T10:29:53.376Z,46.40
2018-05-02T10:32:31.601Z,46.00
2018-05-02T10:35:01.371Z,46.70
2018-05-02T10:38:54.456Z,45.60
2018-05-02T10:41:24.631Z,45.50
2018-05-02T10:43:54.304Z,43.70
2018-05-02T10:46:22.556Z,43.70
2018-05-02T10:48:52.693Z,43.50
2018-05-02T10:51:20.983Z,42.70
2018-05-02T10:53:49.230Z,44.00
2018-05-02T10:56:18.243Z,43.90
2018-05-02T10:58:46.484Z,43.90
2018-05-02T11:01:15.680Z,43.40
2018-05-02T11:03:44.063Z,43.40
2018-05-02T11:06:12.493Z,43.60
2018-05-02T11:08:40.913Z,43.70
2018-05-02T11:11:09.305Z,42.90
2018-05-02T11:13:37.577Z,42.70
2018-05-02T11:16:06.595Z,42.60
2018-05-02T11:18:34.850Z,42.60
2018-05-02T11:21:03.097Z,43.10
2018-05-02T11:23:31.340Z,43.10
2018-05-02T11:25:59.605Z,43.60
2018-05-02T11:28:27.866Z,43.60
2018-05-02T11:30:56.079Z,43.70
2018-05-02T11:33:24.311Z,43.70
2018-05-02T11:35:53.332Z,42.50
2018-05-02T11:38:21.585Z,42.50
2018-05-02T11:40:49.827Z,42.30
2018-05-02T11:43:18.059Z,43.40
2018-05-02T11:45:46.311Z,42.60
2018-05-02T11:48:15.303Z,42.40
2018-05-02T11:50:44.330Z,41.80
2018-05-02T11:53:12.553Z,41.80
2018-05-02T11:55:41.410Z,41.80
2018-05-02T11:58:09.644Z,41.70
2018-05-02T12:00:38.825Z,42.10
2018-05-02T12:03:07.327Z,42.00
2018-05-02T12:05:35.680Z,42.00
2018-05-02T12:08:04.882Z,41.60
2018-05-02T12:10:33.963Z,41.60
2018-05-02T12:13:02.379Z,41.40
2018-05-02T12:15:30.918Z,41.80
2018-05-02T12:17:59.389Z,42.20
2018-05-02T12:20:27.695Z,42.00
2018-05-02T12:22:57.456Z,41.50
2018-05-02T12:25:25.731Z,41.70
2018-05-02T12:27:53.991Z,40.30
2018-05-02T12:30:22.980Z,41.50
2018-05-02T12:32:51.202Z,40.90
2018-05-02T12:35:19.472Z,40.70
2018-05-02T12:37:47.699Z,41.40
2018-05-02T12:40:16.726Z,42.10
2018-05-02T12:42:44.960Z,42.10
2018-05-02T12:45:14.140Z,40.70
2018-05-02T12:47:47.011Z,40.70
2018-05-02T12:50:16.643Z,40.20
2018-05-02T12:52:45.605Z,41.10
2018-05-02T12:55:14.766Z,42.30
2018-05-02T12:57:43.253Z,42.30
2018-05-02T13:00:11.760Z,41.60
2018-05-02T13:02:40.159Z,41.50
2018-05-02T13:05:08.648Z,42.30
2018-05-02T13:07:37.044Z,42.60
2018-05-02T13:10:05.546Z,43.80
2018-05-02T13:12:33.984Z,43.40
2018-05-02T13:15:03.472Z,43.50
2018-05-02T13:17:31.928Z,43.70
2018-05-02T13:20:00.441Z,43.40
2018-05-02T13:22:28.884Z,43.10
2018-05-02T13:24:57.334Z,42.50
2018-05-02T13:27:25.759Z,43.00
2018-05-02T13:29:54.236Z,42.80
2018-05-02T13:32:22.694Z,42.00
2018-05-02T13:34:51.157Z,41.30
2018-05-02T13:37:20.263Z,42.80
2018-05-02T13:39:49.494Z,43.00
2018-05-02T13:42:17.916Z,43.00
2018-05-02T13:44:47.363Z,43.00
2018-05-02T13:47:16.670Z,42.70
2018-05-02T13:49:45.057Z,42.50
2018-05-02T13:52:13.322Z,43.00
2018-05-02T13:54:41.564Z,42.90
2018-05-02T13:57:09.829Z,42.60
2018-05-02T13:59:38.064Z,42.90
2018-05-02T14:02:06.317Z,44.30
2018-05-02T14:04:35.315Z,44.40
2018-05-02T14:07:03.625Z,44.30
2018-05-02T14:09:31.820Z,43.80
2018-05-02T14:12:00.083Z,44.00
2018-05-02T14:14:28.312Z,43.40
2018-05-02T14:16:57.329Z,43.80
2018-05-02T14:19:25.579Z,43.80
2018-05-02T14:21:54.579Z,43.20
2018-05-02T14:24:22.808Z,43.30
2018-05-02T14:26:51.086Z,43.90
2018-05-02T14:29:19.364Z,45.60
2018-05-02T14:31:47.558Z,45.70
2018-05-02T14:34:15.796Z,44.30
2018-05-02T14:36:44.079Z,45.10
2018-05-02T14:39:12.319Z,46.20
2018-05-02T14:41:40.575Z,46.60
2018-05-02T14:44:09.575Z,46.40
2018-05-02T14:46:38.593Z,45.80
2018-05-02T14:49:06.831Z,45.80
2018-05-02T14:51:35.850Z,44.00
2018-05-02T14:54:04.079Z,43.70
2018-05-02T14:56:32.328Z,44.20
2018-05-02T14:59:00.564Z,46.40
2018-05-02T15:01:28.881Z,47.50
2018-05-02T15:03:57.059Z,47.80
2018-05-02T15:06:25.304Z,45.60
2018-05-02T15:08:53.530Z,46.00
2018-05-02T15:11:21.771Z,45.50
2018-05-02T15:13:50.003Z,43.40
2018-05-02T15:16:18.245Z,43.80
2018-05-02T15:18:46.483Z,45.00
2018-05-02T15:21:14.737Z,46.80
2018-05-02T15:23:43.770Z,47.00
2018-05-02T15:26:12.025Z,48.50
2018-05-02T15:28:40.302Z,49.30
2018-05-02T15:31:08.558Z,48.80
2018-05-02T15:33:36.775Z,47.10
2018-05-02T15:36:05.046Z,47.40
2018-05-02T15:38:33.294Z,46.60
2018-05-02T15:41:01.587Z,46.70
2018-05-02T15:43:29.839Z,46.60
2018-05-02T15:45:58.115Z,46.10
2018-05-02T15:48:26.852Z,46.50
2018-05-02T15:50:56.626Z,48.30
2018-05-02T15:53:24.850Z,48.40
2018-05-02T15:55:53.098Z,49.20
2018-05-02T15:58:21.381Z,49.00
2018-05-02T16:00:49.587Z,48.90
2018-05-02T16:03:17.839Z,49.60
2018-05-02T16:05:46.068Z,49.50
2018-05-02T16:08:14.296Z,49.20
2018-05-02T16:10:42.534Z,50.40
2018-05-02T16:13:11.534Z,51.30
2018-05-02T16:15:40.564Z,51.60
2018-05-02T16:18:08.803Z,51.50
2018-05-02T16:20:37.066Z,51.70
2018-05-02T16:23:05.296Z,51.80
2018-05-02T16:25:33.539Z,52.30
2018-05-02T16:28:01.783Z,53.00
2018-05-02T16:30:30.091Z,53.60
2018-05-02T16:32:59.105Z,52.90
2018-05-02T16:35:27.327Z,52.90
2018-05-02T16:37:55.578Z,52.30
2018-05-02T16:40:23.822Z,52.50
2018-05-02T16:42:52.052Z,52.80
2018-05-02T16:45:20.291Z,53.40
2018-05-02T16:47:48.576Z,53.10
2018-05-02T16:50:16.801Z,53.00
2018-05-02T16:52:45.813Z,52.30
2018-05-02T16:55:14.040Z,52.30
2018-05-02T16:57:42.289Z,52.30
2018-05-02T17:00:10.634Z,52.60
2018-05-02T17:02:39.824Z,53.20
2018-05-02T17:05:08.985Z,53.00
2018-05-02T17:07:37.213Z,52.90
2018-05-02T17:10:06.240Z,53.50
2018-05-02T17:12:34.510Z,53.60
2018-05-02T17:15:02.759Z,52.80
2018-05-02T17:17:31.803Z,52.90
2018-05-02T17:20:00.032Z,52.80
2018-05-02T17:22:28.290Z,53.30
2018-05-02T17:24:57.288Z,53.00
2018-05-02T17:27:26.941Z,53.50
2018-05-02T17:29:55.176Z,53.50
2018-05-02T17:32:24.202Z,52.90
2018-05-02T17:34:52.475Z,52.90
2018-05-02T17:37:20.704Z,52.40
2018-05-02T17:39:50.007Z,52.10
2018-05-02T17:42:19.027Z,53.40
2018-05-02T17:44:47.264Z,53.40
2018-05-02T17:47:15.540Z,53.30
2018-05-02T17:49:43.769Z,53.00
2018-05-02T17:52:12.044Z,52.60
2018-05-02T17:54:41.124Z,52.50
2018-05-02T17:57:09.383Z,53.10
2018-05-02T17:59:38.407Z,54.30
2018-05-02T18:02:06.663Z,54.30
2018-05-02T18:04:35.719Z,53.90
2018-05-02T18:07:03.992Z,53.90
2018-05-02T18:09:32.227Z,53.80
2018-05-02T18:12:00.487Z,53.90
2018-05-02T18:14:29.479Z,53.90
2018-05-02T18:16:58.494Z,54.10
2018-05-02T18:19:26.740Z,54.10
2018-05-02T18:21:56.623Z,56.50
2018-05-02T18:24:24.870Z,56.50
2018-05-02T18:26:53.122Z,56.60
2018-05-02T18:29:21.358Z,56.50
2018-05-02T18:31:49.603Z,56.70
2018-05-02T18:34:17.840Z,58.10
2018-05-02T18:36:46.858Z,58.40
2018-05-02T18:39:15.102Z,58.40
2018-05-02T18:41:44.127Z,58.10
2018-05-02T18:44:12.363Z,58.10
2018-05-02T18:46:40.604Z,58.40
2018-05-02T18:49:08.833Z,58.70
2018-05-02T18:51:37.847Z,57.70
2018-05-02T18:54:06.088Z,57.60
2018-05-02T18:56:34.337Z,57.30
2018-05-02T18:59:02.572Z,57.00
2018-05-02T19:01:30.815Z,57.20
2018-05-02T19:03:59.113Z,57.10
2018-05-02T19:06:27.508Z,57.40
2018-05-02T19:08:55.775Z,57.90
2018-05-02T19:11:24.019Z,58.30
2018-05-02T19:13:58.000Z,58.60
2018-05-02T19:16:26.252Z,59.00
2018-05-02T19:19:00.052Z,60.00
2018-05-02T19:21:28.315Z,61.20
2018-05-02T19:23:57.315Z,62.70
2018-05-02T19:26:32.042Z,62.80
2018-05-02T19:29:00.283Z,62.80
2018-05-02T19:31:34.260Z,63.40
2018-05-02T19:34:02.505Z,63.50
2018-05-02T19:36:30.763Z,64.20
2018-05-02T19:38:59.760Z,64.70
2018-05-02T19:41:34.505Z,64.40
2018-05-02T19:44:03.656Z,64.40
2018-05-02T19:46:31.911Z,65.10
2018-05-02T19:49:00.135Z,65.30
2018-05-02T19:51:34.835Z,65.30
2018-05-02T19:54:03.065Z,65.30
2018-05-02T19:56:31.327Z,65.50
2018-05-02T19:59:00.316Z,65.30
2018-05-02T20:01:34.963Z,65.50
2018-05-02T20:04:03.208Z,65.40
2018-05-02T20:06:31.435Z,65.80
2018-05-02T20:09:05.346Z,66.30
2018-05-02T20:11:39.220Z,69.00
2018-05-02T20:14:08.227Z,70.30
2018-05-02T20:16:36.454Z,70.20
2018-05-02T20:19:04.766Z,70.10
2018-05-02T20:21:32.918Z,69.50
2018-05-02T20:24:01.931Z,69.00
2018-05-02T20:26:30.158Z,69.00
2018-05-02T20:28:58.402Z,69.40
2018-05-02T20:31:26.749Z,69.60
2018-05-02T20:33:54.986Z,70.20
2018-05-02T20:36:23.227Z,70.50
2018-05-02T20:38:51.478Z,70.80
2018-05-02T20:41:20.697Z,71.40
2018-05-02T20:43:53.358Z,71.40
2018-05-02T20:46:22.437Z,71.90
2018-05-02T20:48:50.747Z,71.90
2018-05-02T20:51:19.026Z,71.70
2018-05-02T20:53:47.342Z,71.20
2018-05-02T20:56:15.631Z,71.20
2018-05-02T20:58:43.910Z,71.80
2018-05-02T21:01:12.175Z,71.50
2018-05-02T21:03:43.864Z,70.00
2018-05-02T21:06:12.122Z,71.90
2018-05-02T21:08:40.460Z,72.60
2018-05-02T21:11:09.624Z,72.80
2018-05-02T21:13:38.687Z,76.30
2018-05-02T21:16:06.974Z,76.30
2018-05-02T21:18:35.237Z,76.40
2018-05-02T21:21:03.483Z,76.70
2018-05-02T21:23:33.623Z,76.30
2018-05-02T21:26:01.858Z,75.10
2018-05-02T21:28:30.099Z,74.50
2018-05-02T21:30:58.384Z,74.10
2018-05-02T21:33:26.578Z,74.10
2018-05-02T21:35:54.888Z,74.00
2018-05-02T21:38:23.148Z,73.90
2018-05-02T21:40:51.422Z,73.90
2018-05-02T21:43:19.679Z,74.00
2018-05-02T21:45:48.678Z,73.30
2018-05-02T21:48:17.691Z,77.20
2018-05-02T21:50:45.914Z,77.20
2018-05-02T21:53:14.149Z,81.20
2018-05-02T21:55:42.384Z,83.40
2018-05-02T21:58:10.626Z,83.20
2018-05-02T22:00:39.068Z,81.90
2018-05-02T22:03:07.715Z,80.60
2018-05-02T22:05:36.154Z,80.20
2018-05-02T22:08:05.238Z,82.00
2018-05-02T22:10:33.482Z,82.10
2018-05-02T22:13:02.529Z,83.10
2018-05-02T22:15:30.766Z,83.10
2018-05-02T22:17:59.783Z,83.50
2018-05-02T22:20:28.867Z,83.20
2018-05-02T22:22:57.151Z,83.20
2018-05-02T22:25:26.136Z,83.90
2018-05-02T22:27:54.361Z,83.90
2018-05-02T22:30:22.623Z,84.00
2018-05-02T22:32:50.872Z,83.20
2018-05-02T22:35:19.115Z,82.00
2018-05-02T22:37:48.123Z,81.80
2018-05-02T22:40:16.394Z,81.70
2018-05-02T22:42:45.399Z,81.00
2018-05-02T22:45:13.641Z,81.00
2018-05-02T22:47:41.867Z,81.00
2018-05-02T22:50:10.143Z,80.50
2018-05-02T22:52:38.382Z,80.40
2018-05-02T22:55:07.396Z,84.70
2018-05-02T22:57:35.622Z,84.10
2018-05-02T23:00:04.157Z,84.90
2018-05-02T23:02:32.143Z,85.50
2018-05-02T23:05:01.135Z,83.90
2018-05-02T23:07:29.360Z,83.90
2018-05-02T23:09:57.620Z,83.40
2018-05-02T23:12:25.867Z,83.80
2018-05-02T23:14:54.135Z,84.70
2018-05-02T23:17:22.356Z,85.40
2018-05-02T23:19:50.635Z,85.00
2018-05-02T23:22:18.885Z,84.70
2018-05-02T23:24:47.132Z,85.10
2018-05-02T23:27:15.355Z,85.50
2018-05-02T23:29:43.628Z,87.00
2018-05-02T23:32:11.883Z,88.80
2018-05-02T23:34:40.146Z,89.70
2018-05-02T23:37:08.381Z,90.30
2018-05-02T23:39:36.630Z,91.10
2018-05-02T23:42:04.865Z,91.50
2018-05-02T23:44:33.123Z,91.60
2018-05-02T23:47:02.124Z,91.90
2018-05-02T23:49:31.145Z,91.80
2018-05-02T23:51:59.388Z,91.70
2018-05-02T23:54:28.394Z,91.90
2018-05-02T23:56:56.634Z,91.90
2018-05-02T23:59:24.875Z,92.00
